Rocksprings, Texas
Current Conditions -  °F | °C
As of 12:30 AM on Sunday 26 Oct 2014 (Local Time) from KECU Reporting Station
Clear Clear  
Wind Chill: 66°   Ceiling: Unl
Heat Index: 66°   Visibility: 10mi
Dew Point: 54°   Wind: 8mph
Humidity: 64%   Direction: 140°SE
Pressure: 30.15"   Gusts: NA
Location:  30.02°N, 100.21°W
Report Text: KECU 260530Z AUTO 14007KT 10SM CLR 19/12 A3015 RMK AO2
Loading
Personal Weather Stations






























Interactive Weather Map
Tropical Storm Tracking
New forecast layout! Learn more

10-Day Weather Forecast

Advertisements
Track Severe Weather on mobile